Stem, North Carolina
Current Conditions -  °F | °C
As of 8:35 AM on Friday 28 Nov 2014 (Local Time) from KHNZ Reporting Station
Clear Clear  
Wind Chill: 26°   Ceiling: Unl
Heat Index: 33°   Visibility: 10mi
Dew Point: 21°   Wind: 8mph
Humidity: 60%   Direction: 290°WNW
Pressure: 30.34"   Gusts: NA
Location:  36.2°N, 78.72°W
Report Text: KHNZ 281335Z AUTO 29007KT 10SM CLR 01/M06 A3034 RMK AO2 P0001 T00061063
Loading
Personal Weather Stations






























Interactive Weather Map New forecast layout! Learn more

10-Day Weather Forecast

Advertisements
Track Severe Weather on mobile